createdAt,value
2023-02-16T00:00:22.037Z,-0.60
2023-02-16T00:02:49.883Z,-0.60
2023-02-16T00:05:25.902Z,-0.60
2023-02-16T00:07:54.624Z,-0.62
2023-02-16T00:10:22.776Z,-0.62
2023-02-16T00:13:09.347Z,-0.71
2023-02-16T00:15:36.829Z,-0.81
2023-02-16T00:18:15.083Z,-0.78
2023-02-16T00:20:42.547Z,-0.75
2023-02-16T00:23:09.980Z,-0.79
2023-02-16T00:25:37.596Z,-0.76
2023-02-16T00:28:10.655Z,-0.76
2023-02-16T00:30:39.668Z,-0.76
2023-02-16T00:33:19.671Z,-0.74
2023-02-16T00:35:47.930Z,-0.76
2023-02-16T00:38:16.865Z,-0.75
2023-02-16T00:40:44.581Z,-0.73
2023-02-16T00:43:28.161Z,-0.69
2023-02-16T00:45:56.962Z,-0.69
2023-02-16T00:48:24.643Z,-0.66
2023-02-16T00:50:54.392Z,-0.67
2023-02-16T00:53:21.879Z,-0.66
2023-02-16T00:55:49.299Z,-0.63
2023-02-16T00:58:29.933Z,-0.73
2023-02-16T01:01:07.495Z,-0.79
2023-02-16T01:03:35.569Z,-0.76
2023-02-16T01:06:23.868Z,-0.72
2023-02-16T01:09:12.917Z,-0.76
2023-02-16T01:11:40.446Z,-0.79
2023-02-16T01:14:12.709Z,-0.79
2023-02-16T01:16:42.099Z,-0.82
2023-02-16T01:19:12.304Z,-0.77
2023-02-16T01:21:40.231Z,-0.81
2023-02-16T01:24:08.262Z,-0.78
2023-02-16T01:26:40.967Z,-0.75
2023-02-16T01:29:14.986Z,-0.85
2023-02-16T01:31:43.161Z,-0.86
2023-02-16T01:34:11.238Z,-0.79
2023-02-16T01:36:46.673Z,-0.79
2023-02-16T01:39:19.304Z,-0.84
2023-02-16T01:42:09.650Z,-0.91
2023-02-16T01:45:03.448Z,-0.94
2023-02-16T01:47:47.916Z,-0.96
2023-02-16T01:50:43.400Z,-0.95
2023-02-16T01:53:51.787Z,-0.79
2023-02-16T01:56:43.552Z,-0.51
2023-02-16T01:59:39.724Z,-0.38
2023-02-16T02:02:34.898Z,-0.20
2023-02-16T02:05:37.809Z,-0.25
2023-02-16T02:08:20.301Z,-0.33
2023-02-16T02:11:14.727Z,-0.55
2023-02-16T02:13:50.015Z,-0.59
2023-02-16T02:16:21.503Z,-0.49
2023-02-16T02:18:49.296Z,-0.43
2023-02-16T02:22:14.367Z,-0.38
2023-02-16T02:24:56.718Z,-0.37
2023-02-16T02:27:26.966Z,-0.35
2023-02-16T02:30:38.421Z,-0.28
2023-02-16T02:33:20.831Z,-0.18
2023-02-16T02:36:26.910Z,-0.19
2023-02-16T02:39:17.383Z,-0.47
2023-02-16T02:42:06.598Z,-0.74
2023-02-16T02:44:50.469Z,-0.93
2023-02-16T02:47:18.572Z,-0.99
2023-02-16T02:49:53.329Z,-1.09
2023-02-16T02:52:22.617Z,-1.12
2023-02-16T02:55:09.910Z,-1.12
2023-02-16T02:58:06.376Z,-1.13
2023-02-16T03:00:44.552Z,-1.07
2023-02-16T03:03:37.639Z,-1.14
2023-02-16T03:06:18.409Z,-1.26
2023-02-16T03:08:50.169Z,-1.29
2023-02-16T03:11:48.259Z,-1.21
2023-02-16T03:14:26.823Z,-1.20
2023-02-16T03:17:29.297Z,-1.16
2023-02-16T03:20:17.987Z,-1.18
2023-02-16T03:23:04.814Z,-1.21
2023-02-16T03:25:56.220Z,-1.23
2023-02-16T03:28:46.194Z,-1.33
2023-02-16T03:31:23.512Z,-1.37
2023-02-16T03:33:55.234Z,-1.32
2023-02-16T03:36:29.824Z,-1.21
2023-02-16T03:38:58.442Z,-1.00
2023-02-16T03:41:27.084Z,-0.83
2023-02-16T03:43:54.607Z,-0.41
2023-02-16T03:46:22.109Z,-0.01
2023-02-16T03:48:49.680Z,0.03
2023-02-16T03:51:17.186Z,0.08
2023-02-16T03:53:44.852Z,0.71
2023-02-16T03:56:12.369Z,0.63
2023-02-16T03:58:39.873Z,0.26
2023-02-16T04:01:07.452Z,-0.03
2023-02-16T04:03:35.075Z,-0.27
2023-02-16T04:06:02.507Z,-0.39
2023-02-16T04:08:30.162Z,-0.49
2023-02-16T04:10:58.031Z,-0.65
2023-02-16T04:13:25.476Z,-0.71
2023-02-16T04:15:53.037Z,-0.71
2023-02-16T04:18:20.546Z,-0.61
2023-02-16T04:20:47.912Z,-0.41
2023-02-16T04:23:15.466Z,-0.27
2023-02-16T04:25:43.047Z,-0.37
2023-02-16T04:28:10.581Z,-0.43
2023-02-16T04:30:38.285Z,-0.50
2023-02-16T04:33:05.834Z,-0.68
2023-02-16T04:35:33.343Z,-0.83
2023-02-16T04:38:00.848Z,-0.90
2023-02-16T04:40:28.318Z,-0.97
2023-02-16T04:42:55.902Z,-1.01
2023-02-16T04:45:23.337Z,-0.99
2023-02-16T04:47:50.872Z,-0.98
2023-02-16T04:50:18.311Z,-1.16
2023-02-16T04:52:45.858Z,-1.18
2023-02-16T04:55:13.242Z,-1.19
2023-02-16T04:57:41.709Z,-1.23
2023-02-16T05:00:12.042Z,-1.09
2023-02-16T05:02:39.709Z,-0.97
2023-02-16T05:05:07.736Z,-0.91
2023-02-16T05:07:36.321Z,-0.86
2023-02-16T05:10:04.666Z,-0.81
2023-02-16T05:12:51.092Z,-0.79
2023-02-16T05:15:18.805Z,-0.81
2023-02-16T05:17:46.522Z,-0.78
2023-02-16T05:20:14.308Z,-0.68
2023-02-16T05:22:43.652Z,-0.52
2023-02-16T05:25:11.164Z,-0.33
2023-02-16T05:27:38.688Z,-0.22
2023-02-16T05:30:06.724Z,0.02
2023-02-16T05:32:34.133Z,0.43
2023-02-16T05:35:01.785Z,0.80
2023-02-16T05:37:29.257Z,1.37
2023-02-16T05:39:56.971Z,1.33
2023-02-16T05:42:24.510Z,1.17
2023-02-16T05:44:51.928Z,1.02
2023-02-16T05:47:19.370Z,1.00
2023-02-16T05:53:53.033Z,0.32
2023-02-16T05:56:21.321Z,0.13
2023-02-16T05:58:48.938Z,0.14
2023-02-16T06:01:16.623Z,0.34
2023-02-16T06:03:44.480Z,0.38
2023-02-16T06:06:12.130Z,0.23
2023-02-16T06:08:39.636Z,0.07
2023-02-16T06:11:27.638Z,-0.04
2023-02-16T06:13:58.247Z,-0.13
2023-02-16T06:16:27.233Z,-0.27
2023-02-16T06:18:55.327Z,-0.30
2023-02-16T06:21:23.769Z,-0.20
2023-02-16T06:23:51.552Z,-0.05
2023-02-16T06:26:19.227Z,0.07
2023-02-16T06:28:46.678Z,0.18
2023-02-16T06:31:14.766Z,0.30
2023-02-16T06:33:43.505Z,0.38
2023-02-16T06:36:11.847Z,0.49
2023-02-16T06:38:39.708Z,0.54
2023-02-16T06:41:07.602Z,0.69
2023-02-16T06:43:35.314Z,0.96
2023-02-16T06:46:02.924Z,1.29
2023-02-16T06:48:30.709Z,1.73
2023-02-16T06:50:58.374Z,1.77
2023-02-16T06:53:25.761Z,1.70
2023-02-16T06:55:53.358Z,1.63
2023-02-16T06:58:20.774Z,1.62
2023-02-16T07:00:48.368Z,1.71
2023-02-16T07:03:16.140Z,1.61
2023-02-16T07:05:44.241Z,1.60
2023-02-16T07:08:11.649Z,1.58
2023-02-16T07:10:50.224Z,1.66
2023-02-16T07:13:18.014Z,1.12
2023-02-16T07:15:45.936Z,0.93
2023-02-16T07:18:13.383Z,0.93
2023-02-16T07:20:40.790Z,1.04
2023-02-16T07:23:08.292Z,1.22
2023-02-16T07:25:37.092Z,1.38
2023-02-16T07:28:04.785Z,1.52
2023-02-16T07:30:32.240Z,1.55
2023-02-16T07:33:02.510Z,1.59
2023-02-16T07:35:30.033Z,1.76
2023-02-16T07:37:57.532Z,1.89
2023-02-16T07:40:25.299Z,2.03
2023-02-16T07:42:52.741Z,2.22
2023-02-16T07:45:20.177Z,2.53
2023-02-16T07:47:47.597Z,2.85
2023-02-16T07:50:15.130Z,3.12
2023-02-16T07:52:42.655Z,3.34
2023-02-16T07:55:11.532Z,3.41
2023-02-16T07:57:40.199Z,3.52
2023-02-16T08:00:08.606Z,3.73
2023-02-16T08:02:41.921Z,3.97
2023-02-16T08:05:09.918Z,4.30
2023-02-16T08:07:37.405Z,4.52
2023-02-16T08:10:06.031Z,4.70
2023-02-16T08:12:33.540Z,4.73
2023-02-16T08:15:01.037Z,3.98
2023-02-16T08:17:28.454Z,4.21
2023-02-16T08:19:55.993Z,4.40
2023-02-16T08:22:24.084Z,4.48
2023-02-16T08:24:51.595Z,4.47
2023-02-16T08:27:19.077Z,4.53
2023-02-16T08:29:46.704Z,4.86
2023-02-16T08:32:14.774Z,5.12
2023-02-16T08:34:43.480Z,5.27
2023-02-16T08:37:13.166Z,5.46
2023-02-16T08:39:41.649Z,5.73
2023-02-16T08:42:13.420Z,5.72
2023-02-16T08:44:42.520Z,5.59
2023-02-16T08:47:11.102Z,5.66
2023-02-16T08:49:39.522Z,5.51
2023-02-16T08:52:07.119Z,5.58
2023-02-16T08:54:34.772Z,5.79
2023-02-16T08:57:03.205Z,5.81
2023-02-16T08:59:31.375Z,5.92
2023-02-16T09:02:00.135Z,6.10
2023-02-16T09:04:29.465Z,5.95
2023-02-16T09:06:58.544Z,5.53
2023-02-16T09:09:27.536Z,5.45
2023-02-16T09:11:55.086Z,5.02
2023-02-16T09:14:23.193Z,4.51
2023-02-16T09:16:50.832Z,4.29
2023-02-16T09:19:21.008Z,4.05
2023-02-16T09:21:51.130Z,3.93
2023-02-16T09:24:19.276Z,4.12
2023-02-16T09:26:49.871Z,4.57
2023-02-16T09:29:18.329Z,4.97
2023-02-16T09:31:46.451Z,5.14
2023-02-16T09:34:14.028Z,5.28
2023-02-16T09:36:41.621Z,5.53
2023-02-16T09:39:09.188Z,5.72
2023-02-16T09:42:06.736Z,5.92
2023-02-16T09:44:45.099Z,6.02
2023-02-16T09:47:33.488Z,5.94
2023-02-16T09:50:04.648Z,6.05
2023-02-16T09:52:37.178Z,5.96
2023-02-16T09:55:20.843Z,6.04
2023-02-16T09:58:08.224Z,6.24
2023-02-16T10:00:53.994Z,6.30
2023-02-16T10:03:49.469Z,6.11
2023-02-16T10:06:34.193Z,6.09
2023-02-16T10:09:09.894Z,5.86
2023-02-16T10:11:49.192Z,6.01
2023-02-16T10:14:31.893Z,6.46
2023-02-16T10:17:24.165Z,6.77
2023-02-16T10:20:14.036Z,7.12
2023-02-16T10:23:15.752Z,7.40
2023-02-16T10:25:55.709Z,8.00
2023-02-16T10:28:43.300Z,8.55
2023-02-16T10:31:18.577Z,8.17
2023-02-16T10:33:58.797Z,8.12
2023-02-16T10:36:38.316Z,8.02
2023-02-16T10:39:27.951Z,8.19
2023-02-16T10:42:24.394Z,8.32
2023-02-16T10:45:02.220Z,8.29
2023-02-16T10:47:42.110Z,8.07
2023-02-16T10:50:30.147Z,8.30
2023-02-16T10:53:06.755Z,8.45
2023-02-16T10:55:34.346Z,8.47
2023-02-16T10:58:02.526Z,8.24
2023-02-16T11:00:50.302Z,8.39
2023-02-16T11:03:21.488Z,8.56
2023-02-16T11:05:49.222Z,8.73
2023-02-16T11:08:17.679Z,8.44
2023-02-16T11:10:48.357Z,8.63
2023-02-16T11:13:37.661Z,8.64
2023-02-16T11:16:11.156Z,8.70
2023-02-16T11:18:45.415Z,8.89
2023-02-16T11:21:13.441Z,9.13
2023-02-16T11:23:57.499Z,9.31
2023-02-16T11:26:26.296Z,9.61
2023-02-16T11:28:53.780Z,9.25
2023-02-16T11:31:33.424Z,9.03
2023-02-16T11:34:08.837Z,9.10
2023-02-16T11:36:41.450Z,9.05
2023-02-16T11:39:20.025Z,8.94
2023-02-16T11:41:58.564Z,8.67
2023-02-16T11:44:36.056Z,8.40
2023-02-16T11:47:08.798Z,8.23
2023-02-16T11:49:40.400Z,8.17
2023-02-16T11:52:29.657Z,7.88
2023-02-16T11:54:58.971Z,7.98
2023-02-16T11:57:32.240Z,7.82
2023-02-16T12:00:02.201Z,7.77
2023-02-16T12:02:52.217Z,7.83
2023-02-16T12:05:26.267Z,7.93
2023-02-16T12:07:53.777Z,7.95
2023-02-16T12:10:38.472Z,8.02
2023-02-16T12:13:25.886Z,7.89
2023-02-16T12:15:59.062Z,7.85
2023-02-16T12:18:53.866Z,7.84
2023-02-16T12:21:39.847Z,7.62
2023-02-16T12:24:23.895Z,7.54
2023-02-16T12:26:57.070Z,7.66
2023-02-16T12:29:54.003Z,7.78
2023-02-16T12:32:43.139Z,7.88
2023-02-16T12:35:48.177Z,7.96
2023-02-16T12:38:47.300Z,8.04
2023-02-16T12:41:46.144Z,7.96
2023-02-16T12:44:25.188Z,7.96
2023-02-16T12:47:00.955Z,7.73
2023-02-16T12:49:36.711Z,7.72
2023-02-16T12:52:12.435Z,7.67
2023-02-16T12:54:55.530Z,7.69
2023-02-16T12:57:26.324Z,7.69
2023-02-16T13:00:04.304Z,7.69
2023-02-16T13:02:40.662Z,7.70
2023-02-16T13:05:18.301Z,7.75
2023-02-16T13:07:49.209Z,7.86
2023-02-16T13:10:54.918Z,7.84
2023-02-16T13:13:27.345Z,7.86
2023-02-16T13:16:40.076Z,7.84
2023-02-16T13:19:12.607Z,7.76
2023-02-16T13:21:58.935Z,7.71
2023-02-16T13:24:46.993Z,7.65
2023-02-16T13:27:36.047Z,7.50
2023-02-16T13:30:36.898Z,7.49
2023-02-16T13:33:37.607Z,7.34
2023-02-16T13:36:28.198Z,7.32
2023-02-16T13:39:24.834Z,7.33
2023-02-16T13:41:55.731Z,7.31
2023-02-16T13:44:28.245Z,7.53
2023-02-16T13:46:56.845Z,7.63
2023-02-16T13:49:40.394Z,7.57
2023-02-16T13:52:08.994Z,7.50
2023-02-16T13:54:40.268Z,7.38
2023-02-16T13:57:14.670Z,7.31
2023-02-16T13:59:58.443Z,7.24
2023-02-16T14:02:54.611Z,7.21
2023-02-16T14:05:26.344Z,7.25
2023-02-16T14:08:15.141Z,7.28
2023-02-16T14:10:53.278Z,7.39
2023-02-16T14:13:39.093Z,7.32
2023-02-16T14:16:12.158Z,7.34
2023-02-16T14:18:43.181Z,7.45
2023-02-16T14:21:32.286Z,7.63
2023-02-16T14:24:03.274Z,7.76
2023-02-16T14:26:32.673Z,7.84
2023-02-16T14:29:12.651Z,7.86
2023-02-16T14:31:51.155Z,7.78
2023-02-16T14:34:26.897Z,7.83
2023-02-16T14:37:19.193Z,7.85
2023-02-16T14:40:06.847Z,7.76
2023-02-16T14:42:35.955Z,7.77
2023-02-16T14:45:30.354Z,7.85
2023-02-16T14:48:03.055Z,7.96
2023-02-16T14:51:10.029Z,8.18
2023-02-16T14:54:22.147Z,8.14
2023-02-16T14:56:51.974Z,8.05
2023-02-16T14:59:28.444Z,7.96
2023-02-16T15:01:56.514Z,7.96
2023-02-16T15:04:29.231Z,7.45
2023-02-16T15:06:59.635Z,7.34
2023-02-16T15:09:31.380Z,7.26
2023-02-16T15:12:21.875Z,7.23
2023-02-16T15:14:59.811Z,7.22
2023-02-16T15:17:38.240Z,7.28
2023-02-16T15:20:25.537Z,7.38
2023-02-16T15:22:56.161Z,7.48
2023-02-16T15:25:33.977Z,7.52
2023-02-16T15:28:10.711Z,7.55
2023-02-16T15:30:41.303Z,7.55
2023-02-16T15:33:26.845Z,7.47
2023-02-16T15:36:09.051Z,7.27
2023-02-16T15:38:39.853Z,7.10
2023-02-16T15:41:24.476Z,7.04
2023-02-16T15:43:52.353Z,6.98
2023-02-16T15:46:41.265Z,6.96
2023-02-16T15:49:22.466Z,6.95
2023-02-16T15:51:54.091Z,6.91
2023-02-16T15:54:28.622Z,6.85
2023-02-16T15:57:01.132Z,6.82
2023-02-16T15:59:35.791Z,6.81
2023-02-16T16:02:17.568Z,6.75
2023-02-16T16:04:55.365Z,6.70
2023-02-16T16:07:28.343Z,6.59
2023-02-16T16:10:00.596Z,6.58
2023-02-16T16:12:28.988Z,6.51
2023-02-16T16:15:02.143Z,6.50
2023-02-16T16:17:33.300Z,6.46
2023-02-16T16:20:30.774Z,6.40
2023-02-16T16:23:14.181Z,6.33
2023-02-16T16:25:47.527Z,6.28
2023-02-16T16:28:34.941Z,6.21
2023-02-16T16:31:15.792Z,6.12
2023-02-16T16:33:59.974Z,6.07
2023-02-16T16:36:32.061Z,6.05
2023-02-16T16:39:11.448Z,6.04
2023-02-16T16:41:40.638Z,6.08
2023-02-16T16:44:13.474Z,6.09
2023-02-16T16:46:41.151Z,6.09
2023-02-16T16:49:15.936Z,6.11
2023-02-16T16:51:44.105Z,6.17
2023-02-16T16:54:49.116Z,6.23
2023-02-16T16:57:21.502Z,6.31
2023-02-16T16:59:48.971Z,6.33
2023-02-16T17:02:16.564Z,6.36
2023-02-16T17:04:44.222Z,6.38
2023-02-16T17:07:11.680Z,6.38
2023-02-16T17:09:39.229Z,6.39
2023-02-16T17:12:07.268Z,6.39
2023-02-16T17:14:34.860Z,6.35
2023-02-16T17:17:02.337Z,6.35
2023-02-16T17:19:31.025Z,6.40
2023-02-16T17:21:58.462Z,6.33
2023-02-16T17:24:26.842Z,6.30
2023-02-16T17:26:54.231Z,6.24
2023-02-16T17:29:22.747Z,6.12
2023-02-16T17:31:50.805Z,6.11
2023-02-16T17:34:18.438Z,6.11
2023-02-16T17:36:45.927Z,6.08
2023-02-16T17:39:13.579Z,6.03
2023-02-16T17:41:41.120Z,5.89
2023-02-16T17:44:08.628Z,5.76
2023-02-16T17:46:36.053Z,5.62
2023-02-16T17:49:03.613Z,5.51
2023-02-16T17:51:32.350Z,5.48
2023-02-16T17:54:00.124Z,5.55
2023-02-16T17:56:27.557Z,5.66
2023-02-16T17:58:55.130Z,5.77
2023-02-16T18:01:22.752Z,5.84
2023-02-16T18:03:50.697Z,5.98
2023-02-16T18:06:20.877Z,6.02
2023-02-16T18:08:48.555Z,6.09
2023-02-16T18:11:16.089Z,6.20
2023-02-16T18:13:43.715Z,6.21
2023-02-16T18:16:18.944Z,6.23
2023-02-16T18:18:46.437Z,6.30
2023-02-16T18:21:14.107Z,6.34
2023-02-16T18:23:42.107Z,6.33
2023-02-16T18:26:13.187Z,6.33
2023-02-16T18:28:40.757Z,6.32
2023-02-16T18:31:08.641Z,6.28
2023-02-16T18:33:36.434Z,6.19
2023-02-16T18:36:05.735Z,6.08
2023-02-16T18:38:33.506Z,6.01
2023-02-16T18:41:01.035Z,5.94
2023-02-16T18:43:28.544Z,5.89
2023-02-16T18:45:56.018Z,5.83
2023-02-16T18:48:23.618Z,5.92
2023-02-16T18:50:51.066Z,6.07
2023-02-16T18:53:18.633Z,6.14
2023-02-16T18:55:46.055Z,6.20
2023-02-16T18:58:15.073Z,6.27
2023-02-16T19:00:42.823Z,6.31
2023-02-16T19:03:10.449Z,6.32
2023-02-16T19:05:37.873Z,6.38
2023-02-16T19:08:06.247Z,6.50
2023-02-16T19:10:33.961Z,6.59
2023-02-16T19:13:02.290Z,6.74
2023-02-16T19:15:29.994Z,6.71
2023-02-16T19:17:57.572Z,6.69
2023-02-16T19:20:25.718Z,6.69
2023-02-16T19:22:56.265Z,6.60
2023-02-16T19:25:24.024Z,6.63
2023-02-16T19:27:51.449Z,6.59
2023-02-16T19:30:21.717Z,6.62
2023-02-16T19:32:49.297Z,6.60
2023-02-16T19:35:16.837Z,6.59
2023-02-16T19:37:44.388Z,6.56
2023-02-16T19:40:12.658Z,6.57
2023-02-16T19:42:40.232Z,6.61
2023-02-16T19:45:08.620Z,6.74
2023-02-16T19:47:36.150Z,6.80
2023-02-16T19:50:03.936Z,6.77
2023-02-16T19:52:31.460Z,6.76
2023-02-16T19:54:58.980Z,6.76
2023-02-16T19:57:26.492Z,6.79
2023-02-16T19:59:53.957Z,6.81
2023-02-16T20:02:21.571Z,6.87
2023-02-16T20:04:49.232Z,6.92
2023-02-16T20:07:16.777Z,7.02
2023-02-16T20:09:44.190Z,7.02
2023-02-16T20:12:13.538Z,6.98
2023-02-16T20:14:41.020Z,6.99
2023-02-16T20:17:08.536Z,7.01
2023-02-16T20:19:35.981Z,6.98
2023-02-16T20:22:03.521Z,6.94
2023-02-16T20:24:30.978Z,6.92
2023-02-16T20:26:58.555Z,6.89
2023-02-16T20:29:25.992Z,6.94
2023-02-16T20:31:56.573Z,6.91
2023-02-16T20:34:27.453Z,6.97
2023-02-16T20:36:55.586Z,6.97
2023-02-16T20:39:23.745Z,6.92
2023-02-16T20:41:51.315Z,6.94
2023-02-16T20:44:18.901Z,6.98
2023-02-16T20:46:46.409Z,6.97
2023-02-16T20:49:14.599Z,6.94
2023-02-16T20:51:42.839Z,6.87
2023-02-16T20:54:11.722Z,6.91
2023-02-16T20:56:39.419Z,6.88
2023-02-16T20:59:06.872Z,6.90
2023-02-16T21:01:51.940Z,6.90
2023-02-16T21:04:20.472Z,6.82
2023-02-16T21:06:48.218Z,6.79
2023-02-16T21:09:16.308Z,6.84
2023-02-16T21:11:44.076Z,6.87
2023-02-16T21:14:12.307Z,6.84
2023-02-16T21:16:41.195Z,6.81
2023-02-16T21:19:20.968Z,6.86
2023-02-16T21:21:51.435Z,6.90
2023-02-16T21:24:19.002Z,6.95
2023-02-16T21:26:46.499Z,6.96
2023-02-16T21:29:14.157Z,6.98
2023-02-16T21:31:41.781Z,7.04
2023-02-16T21:34:09.398Z,7.03
2023-02-16T21:36:38.300Z,7.06
2023-02-16T21:39:06.309Z,7.08
2023-02-16T21:41:33.839Z,7.12
2023-02-16T21:44:11.438Z,7.16
2023-02-16T21:46:42.029Z,7.21
2023-02-16T21:49:13.176Z,7.20
2023-02-16T21:51:42.288Z,7.18
2023-02-16T21:54:14.781Z,7.19
2023-02-16T21:56:50.361Z,7.21
2023-02-16T21:59:20.103Z,7.31
2023-02-16T22:01:51.181Z,7.32
2023-02-16T22:04:22.835Z,7.31
2023-02-16T22:06:51.572Z,7.29
2023-02-16T22:09:23.564Z,7.28
2023-02-16T22:11:51.915Z,7.30
2023-02-16T22:14:19.782Z,7.30
2023-02-16T22:16:48.195Z,7.35
2023-02-16T22:19:18.105Z,7.32
2023-02-16T22:21:47.255Z,7.32
2023-02-16T22:24:17.141Z,7.32
2023-02-16T22:26:47.825Z,7.35
2023-02-16T22:29:15.954Z,7.39
2023-02-16T22:31:45.680Z,7.41
2023-02-16T22:34:16.262Z,7.41
2023-02-16T22:36:43.846Z,7.40
2023-02-16T22:39:13.733Z,7.40
2023-02-16T22:41:41.393Z,7.37
2023-02-16T22:44:11.016Z,7.36
2023-02-16T22:46:38.900Z,7.38
2023-02-16T22:49:06.329Z,7.39
2023-02-16T22:51:33.933Z,7.45
2023-02-16T22:54:02.242Z,7.44
2023-02-16T22:56:31.275Z,7.49
2023-02-16T22:58:59.990Z,7.45
2023-02-16T23:01:30.320Z,7.41
2023-02-16T23:04:00.474Z,7.49
2023-02-16T23:06:34.344Z,7.49
2023-02-16T23:09:04.152Z,7.45
2023-02-16T23:11:32.832Z,7.47
2023-02-16T23:14:00.362Z,7.41
2023-02-16T23:16:28.626Z,7.46
2023-02-16T23:18:58.094Z,7.46
2023-02-16T23:21:29.616Z,7.39
2023-02-16T23:23:58.415Z,7.41
2023-02-16T23:26:28.081Z,7.35
2023-02-16T23:28:58.364Z,7.33
2023-02-16T23:31:26.252Z,7.22
2023-02-16T23:33:56.235Z,7.13
2023-02-16T23:36:23.853Z,7.06
2023-02-16T23:38:51.247Z,6.99
2023-02-16T23:41:19.046Z,6.96
2023-02-16T23:43:46.519Z,6.87
2023-02-16T23:46:14.007Z,6.87
2023-02-16T23:48:41.464Z,6.92
2023-02-16T23:51:11.727Z,6.95
2023-02-16T23:53:39.914Z,6.97
2023-02-16T23:56:24.511Z,7.03
2023-02-16T23:58:52.705Z,7.02
